Terminal Aerodrome Forecast
Issued by NWS Jackson, MS

Home | Current Version | Previous Version | Text Only | Print | Product List | Glossary On
Versions: 1 2 3 4 5 6 7 8 9 10 11 12 13 14 15 16 17 18 19
938
FTUS44 KMEG 272322
TAFTUP
TAF
KTUP 272322Z 2800/2824 18010G17KT P6SM FEW050
     FM280200 21006KT P6SM VCTS BKN060CB
      TEMPO 2802/2804 1SM +TSRA BR OVC035CB
     FM280600 22004KT P6SM OVC010
      TEMPO 2809/2813 2SM BR
     FM281300 36003KT P6SM OVC007
     FM281900 01004KT P6SM OVC050=

USA.gov is the U.S. government's official web portal to all federal, state and local government web resources and services.